b Virtual Airlines Manager

 METAR AND TAF INFORMATION
METAR FOR VABB
ADDS - METARS form results

(2210 UTC 24 January 2021)
Data provider http://aviationweather.gov/metar/data/
 
METAR text: VABB 242200Z 00000KT 3000 HZ NSC 22/13 Q1012 NOSIG
Conditions at: VABB (BOMBAY/SANTACRUZ, IN) observed 2200 UTC 24 January 2021
Temperature: 22.0°C (72°F)
Dewpoint: 13.0°C (55°F) [RH = 57%]
Pressure (altimeter): 29.88 inches Hg (1012.0 mb)
Winds: calm
Visibility: 1.86 miles (2.99 km)
Ceiling: at least 12,000 feet AGL
Clouds: sky clear below 12,000 feet AGL
Weather: HZ  (haze)

METAR text: VABB 242130Z 35004KT 3000 HZ NSC 23/14 Q1012 NOSIG
Conditions at: VABB (BOMBAY/SANTACRUZ, IN) observed 2130 UTC 24 January 2021
Temperature: 23.0°C (73°F)
Dewpoint: 14.0°C (57°F) [RH = 57%]
Pressure (altimeter): 29.88 inches Hg (1012.0 mb)
Winds: from the N (350 degrees) at 5 MPH (4 knots; 2.1 m/s)
Visibility: 1.86 miles (2.99 km)
Ceiling: at least 12,000 feet AGL
Clouds: sky clear below 12,000 feet AGL
Weather: HZ  (haze)

Forecast for: VABB (BOMBAY/SANTACRUZ, IN)
Text: TAF VABB 242000Z 2421/2506 03005KT 2500 HZ FEW100
Forecast period: 2100 UTC 24 January 2021 to 0600 UTC 25 January 2021
Forecast type: FROM: standard forecast or significant change
Winds: from the NNE (30 degrees) at 6 MPH (5 knots; 2.6 m/s)
Visibility: 1.55 miles (2.49 km)
Ceiling: at least 12,000 feet AGL
Clouds: few clouds at 10000 feet AGL
Weather: HZ  (haze)

 AIRPORT MAP

 RUNWAY INFORMATION
Runway 09 Runway length 11302 ft Runway width 148 ft
Runway elevation 15 ft Runway displaced threshold 465 ft Runway heading 89
Runway 27 Runway length 11302 ft Runway width 148 ft
Runway elevation 22 ft Runway displaced threshold 1581 ft Runway heading 269
Runway 14 Runway length 9596 ft Runway width 150 ft
Runway elevation 37 ft Runway displaced threshold 1238 ft Runway heading 134
Runway 32 Runway length 9596 ft Runway width 150 ft
Runway elevation 26 ft Runway displaced threshold 853 ft Runway heading 314

 AIRPORT FREQUENCIES
Type ACC Name MUMBAI Frequency 120.5 MHZ
Type APP Name MUMBAI APP Frequency 127.9 MHZ
Type ATIS Name MUMBAI ATI Frequency 126.4 MHZ
Type CLD Name MUMBAI CLR Frequency 121.85 MHZ
Type GND Name MUMBAI GND Frequency 121.9 MHZ
Type RDO Name MUMBAI RDO Frequency 1008.4 MHZ
Type RDR Name RDR Frequency 119.3 MHZ
Type TWR Name MUMBAI TWR Frequency 118.1 MHZ

 AIRPORT NEAR NAVIGATION AIDS
Type VOR-DME Name Mumbai Frequency 116600 KHZ


   

  admin@vaerocargo.online

counter free counter free

Flag Counter
© 2020 VAeroCargo : All Rights Reserved

VAeroCargo is an online virtual simulation site for Flight Simulation purposes only, and does not represent any of the real world airlines, Inc. in any capacity.
No resemblance to real-world navigation


BIG THANKS to VAM and its suite of system on basis of which this entire VA system has been built on
Thanks to the original developer of Virtual Airline Manager(VAM) - Mr. Alejandro Garcia